ADDS METAR Data INFO
IDs: Format: Raw Decoded Include TAF

Data at: 0211 UTC 19 Jul 2018

KGZN 190140Z AUTO 12006KT 10SM CLR 33/13 A2990 RMK AO2
KGZN 190120Z AUTO 12005KT 10SM CLR 34/13 A2989 RMK AO2
KGZN 190100Z AUTO 10006KT 10SM CLR 34/12 A2989 RMK AO2
KGZN 190040Z AUTO 16006KT 10SM CLR 35/12 A2989 RMK AO2
KGZN 190020Z AUTO 15006G13KT 10SM CLR 37/11 A2988 RMK AO2
KGZN 190000Z AUTO 15005KT 10SM CLR 39/11 A2988 RMK AO2
KGZN 182340Z AUTO 20006KT 10SM CLR 39/11 A2989 RMK AO2
KGZN 182320Z AUTO 11006G12KT 10SM FEW120 39/11 A2990 RMK AO2
KGZN 182300Z AUTO 11007G16KT 10SM SCT110 39/11 A2990 RMK AO2
KGZN 182240Z AUTO VRB06KT 10SM SCT110 40/11 A2990 RMK AO2
KGZN 182220Z AUTO 22005KT 10SM FEW110 40/11 A2991 RMK AO2
KGZN 182200Z AUTO 00000KT 10SM FEW110 39/11 A2992 RMK AO2
KGZN 182140Z AUTO 23007KT 10SM CLR 40/12 A2992 RMK AO2
KGZN 182120Z AUTO VRB05G13KT 10SM CLR 39/12 A2992 RMK AO2
KGZN 182100Z AUTO 20007KT 170V230 10SM CLR 40/11 A2994 RMK AO2
KGZN 182040Z AUTO VRB05G12KT 10SM CLR 40/11 A2994 RMK AO2
KGZN 182020Z AUTO 19009G15KT 10SM CLR 40/11 A2995 RMK AO2
KGZN 182000Z AUTO 00000KT 10SM CLR 39/11 A2995 RMK AO2
KGZN 181940Z AUTO 24011G17KT 10SM CLR 39/12 A2996 RMK AO2
KGZN 181920Z AUTO VRB04G15KT 10SM CLR 39/12 A2997 RMK AO2
KGZN 181900Z AUTO VRB03KT 10SM CLR 38/13 A2998 RMK AO2
KGZN 181840Z AUTO VRB03G12KT 10SM CLR 38/13 A2999 RMK AO2
KGZN 181820Z AUTO VRB03G14KT 10SM CLR 38/13 A3000 RMK AO2
KGZN 181800Z AUTO 22009G15KT 10SM CLR 38/13 A3000 RMK AO2
KGZN 181740Z AUTO 24008G15KT 220V290 10SM CLR 37/15 A3001 RMK AO2
KGZN 181720Z AUTO 21010KT 10SM CLR 36/17 A3001 RMK AO2
KGZN 181700Z AUTO VRB05G15KT 10SM CLR 36/17 A3002 RMK AO2
KGZN 181640Z AUTO 22011G16KT 10SM CLR 36/17 A3002 RMK AO2
KGZN 181620Z AUTO 23011KT 10SM CLR 35/18 A3003 RMK AO2
KGZN 181600Z AUTO 22011G17KT 10SM CLR 34/18 A3003 RMK AO2
KGZN 181540Z AUTO 24011G17KT 10SM CLR 33/18 A3003 RMK AO2
KGZN 181520Z AUTO 23015KT 10SM CLR 32/18 A3003 RMK AO2
KGZN 181500Z AUTO 24016KT 10SM CLR 31/18 A3003 RMK AO2
KGZN 181440Z AUTO 22016KT 10SM CLR 30/18 A3003 RMK AO2
KGZN 181420Z AUTO 23013G20KT 9SM CLR 30/18 A3004 RMK AO2
KGZN 181400Z AUTO 23012G20KT 10SM CLR 29/17 A3004 RMK AO2
KGZN 181340Z AUTO 22011KT 10SM CLR 28/17 A3004 RMK AO2
KGZN 181320Z AUTO 21010G16KT 10SM CLR 27/17 A3004 RMK AO2
KGZN 181300Z AUTO 21009KT 10SM CLR 26/16 A3004 RMK AO2
KGZN 181240Z AUTO 20006KT 10SM CLR 26/16 A3004 RMK AO2
KGZN 181220Z AUTO 21008KT 10SM CLR 25/15 A3003 RMK AO2
KGZN 181200Z AUTO 21008KT 10SM CLR 25/15 A3003 RMK AO2
KGZN 181140Z AUTO 21008KT 10SM CLR 25/15 A3002 RMK AO2
KGZN 181120Z AUTO 21009KT 10SM FEW055 26/15 A3002 RMK AO2
KGZN 181100Z AUTO 21009KT 10SM FEW055 FEW065 FEW080 26/15 A3002 RMK AO2
KGZN 181040Z AUTO 21010KT 10SM CLR 26/15 A3001 RMK AO2
KGZN 181020Z AUTO 20009G16KT 10SM CLR 26/14 A3001 RMK AO2
KGZN 181000Z AUTO 20009KT 160V220 10SM FEW060 26/14 A3001 RMK AO2
KGZN 180940Z AUTO 20008KT 10SM CLR 26/14 A3002 RMK AO2
KGZN 180920Z AUTO 20009KT 10SM CLR 26/14 A3002 RMK AO2
KGZN 180900Z AUTO 20008G13KT 10SM CLR 26/13 A3002 RMK AO2
KGZN 180840Z AUTO 20008KT 10SM CLR 27/13 A3002 RMK AO2
KGZN 180820Z AUTO 20008KT 10SM FEW060 27/13 A3002 RMK AO2
KGZN 180800Z AUTO 19007KT 10SM CLR 27/13 A3002 RMK AO2
KGZN 180740Z AUTO 20008KT 10SM CLR 27/12 A3001 RMK AO2
KGZN 180720Z AUTO 19008KT 10SM CLR 27/12 A3002 RMK AO2
KGZN 180700Z AUTO 19007G13KT 10SM CLR 27/12 A3002 RMK AO2
KGZN 180640Z AUTO 19007KT 10SM CLR 28/11 A3002 RMK AO2
KGZN 180620Z AUTO 19007KT 10SM CLR 27/11 A3002 RMK AO2
KGZN 180600Z AUTO 18009KT 10SM CLR 27/11 A3003 RMK AO2
KGZN 180540Z AUTO 18007KT 10SM CLR 28/11 A3003 RMK AO2
KGZN 180520Z AUTO 18009KT 10SM CLR 26/11 A3003 RMK AO2
KGZN 180500Z AUTO 16008KT 10SM CLR 27/10 A3003 RMK AO2
KGZN 180440Z AUTO 16007KT 10SM CLR 27/10 A3002 RMK AO2
KGZN 180420Z AUTO 17006KT 10SM CLR 27/10 A3002 RMK AO2
KGZN 180400Z AUTO 16006KT 10SM CLR 27/11 A3001 RMK AO2
KGZN 180340Z AUTO 16005KT 10SM CLR 28/10 A3000 RMK AO2
KGZN 180320Z AUTO 15006KT 10SM CLR 28/10 A2999 RMK AO2
KGZN 180300Z AUTO 16007KT 10SM CLR 28/11 A2999 RMK AO2
KGZN 180240Z AUTO 13006KT 10SM CLR 29/11 A2999 RMK AO2
KGZN 180220Z AUTO 13006KT 10SM CLR 30/11 A2999 RMK AO2
KGZN 180200Z AUTO 11007KT 8SM CLR 31/09 A2999 RMK AO2
KGZN 180140Z AUTO 13005KT 8SM CLR 32/09 A2999 RMK AO2
KGZN 180120Z AUTO 14005KT 8SM CLR 33/09 A2998 RMK AO2
KGZN 180100Z AUTO 15006KT 8SM CLR 34/09 A2998 RMK AO2
KGZN 180040Z AUTO 16007KT 9SM CLR 36/08 A2998 RMK AO2
KGZN 180020Z AUTO 16009KT 9SM CLR 37/08 A2998 RMK AO2
KGZN 180000Z AUTO 17008G14KT 9SM CLR 37/09 A2999 RMK AO2
KGZN 172340Z AUTO 17010KT 9SM CLR 38/09 A2999 RMK AO2
KGZN 172320Z AUTO 15009KT 130V200 9SM CLR 38/09 A2999 RMK AO2
KGZN 172300Z AUTO 15008KT 9SM CLR 38/09 A3000 RMK AO2
KGZN 172240Z AUTO 25006G12KT 9SM CLR 38/10 A3000 RMK AO2
KGZN 172220Z AUTO 16008G15KT 8SM CLR 38/11 A3000 RMK AO2
KGZN 172200Z AUTO 16009KT 8SM CLR 38/11 A3001 RMK AO2
KGZN 172140Z AUTO 15011KT 100V180 9SM CLR 38/11 A3001 RMK AO2
KGZN 172120Z AUTO 16009G15KT 9SM CLR 38/10 A3002 RMK AO2
KGZN 172100Z AUTO VRB05G10KT 9SM CLR 38/11 A3002 RMK AO2
KGZN 172040Z AUTO 18007KT 9SM CLR 38/09 A3003 RMK AO2
KGZN 172020Z AUTO 18011KT 140V220 9SM CLR 37/10 A3004 RMK AO2
KGZN 172000Z AUTO 16006G15KT 9SM CLR 37/12 A3005 RMK AO2
KGZN 171940Z AUTO 15011KT 8SM CLR 37/13 A3006 RMK AO2
KGZN 171920Z AUTO VRB03G10KT 7SM CLR 37/14 A3006 RMK AO2
KGZN 171900Z AUTO 18008KT 150V210 8SM CLR 36/15 A3007 RMK AO2
KGZN 171840Z AUTO 19008G13KT 8SM CLR 36/14 A3008 RMK AO2
KGZN 171820Z AUTO 24006KT 8SM CLR 36/14 A3009 RMK AO2
KGZN 171800Z AUTO VRB05G13KT 7SM CLR 36/14 A3009 RMK AO2
KGZN 171740Z AUTO 25004G11KT 7SM CLR 36/15 A3010 RMK AO2
KGZN 171720Z AUTO 27009KT 250V310 8SM CLR 35/16 A3011 RMK AO2
KGZN 171700Z AUTO 24009G16KT 210V270 7SM CLR 34/17 A3011 RMK AO2
KGZN 171640Z AUTO 22008G14KT 200V270 7SM CLR 34/17 A3011 RMK AO2
KGZN 171620Z AUTO 25011KT 8SM CLR 33/18 A3011 RMK AO2
KGZN 171600Z AUTO 22010KT 8SM CLR 32/18 A3011 RMK AO2
KGZN 171540Z AUTO 24011G16KT 7SM CLR 32/18 A3011 RMK AO2
KGZN 171520Z AUTO 23012G19KT 8SM CLR 31/18 A3011 RMK AO2
KGZN 171500Z AUTO 24013G18KT 8SM CLR 30/19 A3011 RMK AO2
KGZN 171440Z AUTO 23011G16KT 8SM CLR 30/19 A3011 RMK AO2
KGZN 171420Z AUTO 24013G18KT 7SM CLR 29/19 A3011 RMK AO2